sensor_id;sensor_type;location;lat;lon;timestamp;temperature;humidity
11035;DHT22;5571;48.110;-1.706;2024-01-16T00:00:15;2.00;99.90
11035;DHT22;5571;48.110;-1.706;2024-01-16T00:02:40;2.00;99.90
11035;DHT22;5571;48.110;-1.706;2024-01-16T00:05:06;2.00;99.90
11035;DHT22;5571;48.110;-1.706;2024-01-16T00:07:32;2.00;99.90
11035;DHT22;5571;48.110;-1.706;2024-01-16T00:10:00;2.00;99.90
11035;DHT22;5571;48.110;-1.706;2024-01-16T00:12:25;1.90;99.90
11035;DHT22;5571;48.110;-1.706;2024-01-16T00:14:51;1.90;99.90
11035;DHT22;5571;48.110;-1.706;2024-01-16T00:17:16;1.90;99.90
11035;DHT22;5571;48.110;-1.706;2024-01-16T00:19:42;1.90;99.90
11035;DHT22;5571;48.110;-1.706;2024-01-16T00:22:08;1.90;99.90
11035;DHT22;5571;48.110;-1.706;2024-01-16T00:24:33;1.90;99.90
11035;DHT22;5571;48.110;-1.706;2024-01-16T00:26:59;1.90;99.90
11035;DHT22;5571;48.110;-1.706;2024-01-16T00:29:24;1.90;99.90
11035;DHT22;5571;48.110;-1.706;2024-01-16T00:31:50;1.90;99.90
11035;DHT22;5571;48.110;-1.706;2024-01-16T00:34:16;1.90;99.90
11035;DHT22;5571;48.110;-1.706;2024-01-16T00:36:41;1.90;99.90
11035;DHT22;5571;48.110;-1.706;2024-01-16T00:39:07;1.90;99.90
11035;DHT22;5571;48.110;-1.706;2024-01-16T00:41:33;1.80;99.90
11035;DHT22;5571;48.110;-1.706;2024-01-16T00:43:59;1.90;99.90
11035;DHT22;5571;48.110;-1.706;2024-01-16T00:46:24;1.80;99.90
11035;DHT22;5571;48.110;-1.706;2024-01-16T00:48:50;1.90;99.90
11035;DHT22;5571;48.110;-1.706;2024-01-16T00:51:15;1.80;99.90
11035;DHT22;5571;48.110;-1.706;2024-01-16T00:53:41;1.80;99.90
11035;DHT22;5571;48.110;-1.706;2024-01-16T00:56:07;1.80;99.90
11035;DHT22;5571;48.110;-1.706;2024-01-16T00:58:33;1.80;99.90
11035;DHT22;5571;48.110;-1.706;2024-01-16T01:00:59;1.80;99.90
11035;DHT22;5571;48.110;-1.706;2024-01-16T01:03:24;1.80;99.90
11035;DHT22;5571;48.110;-1.706;2024-01-16T01:05:50;1.80;99.90
11035;DHT22;5571;48.110;-1.706;2024-01-16T01:08:16;1.70;99.90
11035;DHT22;5571;48.110;-1.706;2024-01-16T01:10:41;1.70;99.90
11035;DHT22;5571;48.110;-1.706;2024-01-16T01:13:07;1.70;99.90
11035;DHT22;5571;48.110;-1.706;2024-01-16T01:15:33;1.70;99.90
11035;DHT22;5571;48.110;-1.706;2024-01-16T01:17:58;1.60;99.90
11035;DHT22;5571;48.110;-1.706;2024-01-16T01:20:24;1.60;99.90
11035;DHT22;5571;48.110;-1.706;2024-01-16T01:22:50;1.60;99.90
11035;DHT22;5571;48.110;-1.706;2024-01-16T01:25:15;1.60;99.90
11035;DHT22;5571;48.110;-1.706;2024-01-16T01:27:41;1.60;99.90
11035;DHT22;5571;48.110;-1.706;2024-01-16T01:30:10;1.50;99.90
11035;DHT22;5571;48.110;-1.706;2024-01-16T01:32:39;1.50;99.90
11035;DHT22;5571;48.110;-1.706;2024-01-16T01:35:05;1.40;99.90
11035;DHT22;5571;48.110;-1.706;2024-01-16T01:37:31;1.40;99.90
11035;DHT22;5571;48.110;-1.706;2024-01-16T01:39:57;1.40;99.90
11035;DHT22;5571;48.110;-1.706;2024-01-16T01:42:23;1.40;99.90
11035;DHT22;5571;48.110;-1.706;2024-01-16T01:44:48;1.30;99.90
11035;DHT22;5571;48.110;-1.706;2024-01-16T01:47:14;1.30;99.90
11035;DHT22;5571;48.110;-1.706;2024-01-16T01:49:40;1.30;99.90
11035;DHT22;5571;48.110;-1.706;2024-01-16T01:52:06;1.30;99.90
11035;DHT22;5571;48.110;-1.706;2024-01-16T01:54:36;1.30;99.90
11035;DHT22;5571;48.110;-1.706;2024-01-16T01:57:02;1.20;99.90
11035;DHT22;5571;48.110;-1.706;2024-01-16T01:59:29;1.20;99.90
11035;DHT22;5571;48.110;-1.706;2024-01-16T02:01:56;1.20;99.90
11035;DHT22;5571;48.110;-1.706;2024-01-16T02:04:22;1.20;99.90
11035;DHT22;5571;48.110;-1.706;2024-01-16T02:06:48;1.20;99.90
11035;DHT22;5571;48.110;-1.706;2024-01-16T02:09:14;1.20;99.90
11035;DHT22;5571;48.110;-1.706;2024-01-16T02:11:40;1.20;99.90
11035;DHT22;5571;48.110;-1.706;2024-01-16T02:14:06;1.20;99.90
11035;DHT22;5571;48.110;-1.706;2024-01-16T02:16:40;1.20;99.90
11035;DHT22;5571;48.110;-1.706;2024-01-16T02:19:06;1.20;99.90
11035;DHT22;5571;48.110;-1.706;2024-01-16T02:21:41;1.20;99.90
11035;DHT22;5571;48.110;-1.706;2024-01-16T02:24:08;1.20;99.90
11035;DHT22;5571;48.110;-1.706;2024-01-16T02:26:35;1.30;99.90
11035;DHT22;5571;48.110;-1.706;2024-01-16T02:29:01;1.30;99.90
11035;DHT22;5571;48.110;-1.706;2024-01-16T02:31:28;1.30;99.90
11035;DHT22;5571;48.110;-1.706;2024-01-16T02:33:53;1.30;99.90
11035;DHT22;5571;48.110;-1.706;2024-01-16T02:36:19;1.30;99.90
11035;DHT22;5571;48.110;-1.706;2024-01-16T02:38:44;1.30;99.90
11035;DHT22;5571;48.110;-1.706;2024-01-16T02:41:13;1.20;99.90
11035;DHT22;5571;48.110;-1.706;2024-01-16T02:43:39;1.30;99.90
11035;DHT22;5571;48.110;-1.706;2024-01-16T02:46:04;1.20;99.90
11035;DHT22;5571;48.110;-1.706;2024-01-16T02:48:30;1.20;99.90
11035;DHT22;5571;48.110;-1.706;2024-01-16T02:50:56;1.20;99.90
11035;DHT22;5571;48.110;-1.706;2024-01-16T02:53:21;1.20;99.90
11035;DHT22;5571;48.110;-1.706;2024-01-16T02:55:47;1.20;99.90
11035;DHT22;5571;48.110;-1.706;2024-01-16T02:58:12;1.20;99.90
11035;DHT22;5571;48.110;-1.706;2024-01-16T03:00:38;1.20;99.90
11035;DHT22;5571;48.110;-1.706;2024-01-16T03:03:04;1.20;99.90
11035;DHT22;5571;48.110;-1.706;2024-01-16T03:05:30;1.20;99.90
11035;DHT22;5571;48.110;-1.706;2024-01-16T03:07:55;1.20;99.90
11035;DHT22;5571;48.110;-1.706;2024-01-16T03:10:21;1.20;99.90
11035;DHT22;5571;48.110;-1.706;2024-01-16T03:12:46;1.20;99.90
11035;DHT22;5571;48.110;-1.706;2024-01-16T03:15:12;1.20;99.90
11035;DHT22;5571;48.110;-1.706;2024-01-16T03:17:38;1.20;99.90
11035;DHT22;5571;48.110;-1.706;2024-01-16T03:20:04;1.20;99.90
11035;DHT22;5571;48.110;-1.706;2024-01-16T03:22:29;1.20;99.90
11035;DHT22;5571;48.110;-1.706;2024-01-16T03:24:55;1.20;99.90
11035;DHT22;5571;48.110;-1.706;2024-01-16T03:27:20;1.20;99.90
11035;DHT22;5571;48.110;-1.706;2024-01-16T03:29:46;1.20;99.90
11035;DHT22;5571;48.110;-1.706;2024-01-16T03:32:11;1.20;99.90
11035;DHT22;5571;48.110;-1.706;2024-01-16T03:34:37;1.20;99.90
11035;DHT22;5571;48.110;-1.706;2024-01-16T03:37:03;1.10;99.90
11035;DHT22;5571;48.110;-1.706;2024-01-16T03:39:28;1.20;99.90
11035;DHT22;5571;48.110;-1.706;2024-01-16T03:41:54;1.10;99.90
11035;DHT22;5571;48.110;-1.706;2024-01-16T03:44:20;1.10;99.90
11035;DHT22;5571;48.110;-1.706;2024-01-16T03:46:45;1.20;99.90
11035;DHT22;5571;48.110;-1.706;2024-01-16T03:49:11;1.20;99.90
11035;DHT22;5571;48.110;-1.706;2024-01-16T03:51:36;1.20;99.90
11035;DHT22;5571;48.110;-1.706;2024-01-16T03:54:02;1.20;99.90
11035;DHT22;5571;48.110;-1.706;2024-01-16T03:56:28;1.20;99.90
11035;DHT22;5571;48.110;-1.706;2024-01-16T03:58:54;1.20;99.90
11035;DHT22;5571;48.110;-1.706;2024-01-16T04:01:30;1.20;99.90
11035;DHT22;5571;48.110;-1.706;2024-01-16T04:03:56;1.20;99.90
11035;DHT22;5571;48.110;-1.706;2024-01-16T04:06:22;1.20;99.90
11035;DHT22;5571;48.110;-1.706;2024-01-16T04:08:47;1.20;99.90
11035;DHT22;5571;48.110;-1.706;2024-01-16T04:11:13;1.20;99.90
11035;DHT22;5571;48.110;-1.706;2024-01-16T04:13:40;1.20;99.90
11035;DHT22;5571;48.110;-1.706;2024-01-16T04:16:06;1.20;99.90
11035;DHT22;5571;48.110;-1.706;2024-01-16T04:18:39;1.20;99.90
11035;DHT22;5571;48.110;-1.706;2024-01-16T04:21:06;1.20;99.90
11035;DHT22;5571;48.110;-1.706;2024-01-16T04:23:32;1.10;99.90
11035;DHT22;5571;48.110;-1.706;2024-01-16T04:25:58;1.20;99.90
11035;DHT22;5571;48.110;-1.706;2024-01-16T04:28:24;1.20;99.90
11035;DHT22;5571;48.110;-1.706;2024-01-16T04:30:50;1.20;99.90
11035;DHT22;5571;48.110;-1.706;2024-01-16T04:33:16;1.20;99.90
11035;DHT22;5571;48.110;-1.706;2024-01-16T04:35:41;1.20;99.90
11035;DHT22;5571;48.110;-1.706;2024-01-16T04:38:07;1.20;99.90
11035;DHT22;5571;48.110;-1.706;2024-01-16T04:40:33;1.20;99.90
11035;DHT22;5571;48.110;-1.706;2024-01-16T04:42:59;1.20;99.90
11035;DHT22;5571;48.110;-1.706;2024-01-16T04:45:25;1.20;99.90
11035;DHT22;5571;48.110;-1.706;2024-01-16T04:47:50;1.10;99.90
11035;DHT22;5571;48.110;-1.706;2024-01-16T04:50:16;1.20;99.90
11035;DHT22;5571;48.110;-1.706;2024-01-16T04:52:42;1.20;99.90
11035;DHT22;5571;48.110;-1.706;2024-01-16T04:55:08;1.20;99.90
11035;DHT22;5571;48.110;-1.706;2024-01-16T04:57:34;1.10;99.90
11035;DHT22;5571;48.110;-1.706;2024-01-16T05:00:00;1.10;99.90
11035;DHT22;5571;48.110;-1.706;2024-01-16T05:02:25;1.20;99.90
11035;DHT22;5571;48.110;-1.706;2024-01-16T05:04:51;1.20;99.90
11035;DHT22;5571;48.110;-1.706;2024-01-16T05:07:18;1.10;99.90
11035;DHT22;5571;48.110;-1.706;2024-01-16T05:09:46;1.10;99.90
11035;DHT22;5571;48.110;-1.706;2024-01-16T05:12:12;1.10;99.90
11035;DHT22;5571;48.110;-1.706;2024-01-16T05:14:38;1.10;99.90
11035;DHT22;5571;48.110;-1.706;2024-01-16T05:17:04;1.10;99.90
11035;DHT22;5571;48.110;-1.706;2024-01-16T05:19:29;1.10;99.90
11035;DHT22;5571;48.110;-1.706;2024-01-16T05:21:55;1.00;99.90
11035;DHT22;5571;48.110;-1.706;2024-01-16T05:24:21;1.00;99.90
11035;DHT22;5571;48.110;-1.706;2024-01-16T05:26:46;1.00;99.90
11035;DHT22;5571;48.110;-1.706;2024-01-16T05:29:12;1.00;99.90
11035;DHT22;5571;48.110;-1.706;2024-01-16T05:31:41;1.00;99.90
11035;DHT22;5571;48.110;-1.706;2024-01-16T05:34:07;1.00;99.90
11035;DHT22;5571;48.110;-1.706;2024-01-16T05:36:33;0.90;99.90
11035;DHT22;5571;48.110;-1.706;2024-01-16T05:38:59;0.90;99.90
11035;DHT22;5571;48.110;-1.706;2024-01-16T05:41:24;0.90;99.90
11035;DHT22;5571;48.110;-1.706;2024-01-16T05:43:50;0.90;99.90
11035;DHT22;5571;48.110;-1.706;2024-01-16T05:46:15;0.90;99.90
11035;DHT22;5571;48.110;-1.706;2024-01-16T05:48:41;0.90;99.90
11035;DHT22;5571;48.110;-1.706;2024-01-16T05:51:06;0.80;99.90
11035;DHT22;5571;48.110;-1.706;2024-01-16T05:53:32;0.80;99.90
11035;DHT22;5571;48.110;-1.706;2024-01-16T05:55:58;0.80;99.90
11035;DHT22;5571;48.110;-1.706;2024-01-16T05:58:23;0.80;99.90
11035;DHT22;5571;48.110;-1.706;2024-01-16T06:00:49;0.80;99.90
11035;DHT22;5571;48.110;-1.706;2024-01-16T06:03:14;0.80;99.90
11035;DHT22;5571;48.110;-1.706;2024-01-16T06:05:40;0.80;99.90
11035;DHT22;5571;48.110;-1.706;2024-01-16T06:08:06;0.80;99.90
11035;DHT22;5571;48.110;-1.706;2024-01-16T06:10:31;0.70;99.90
11035;DHT22;5571;48.110;-1.706;2024-01-16T06:12:57;0.80;99.90
11035;DHT22;5571;48.110;-1.706;2024-01-16T06:15:22;0.70;99.90
11035;DHT22;5571;48.110;-1.706;2024-01-16T06:17:49;0.70;99.90
11035;DHT22;5571;48.110;-1.706;2024-01-16T06:20:14;0.70;99.90
11035;DHT22;5571;48.110;-1.706;2024-01-16T06:22:40;0.60;99.90
11035;DHT22;5571;48.110;-1.706;2024-01-16T06:25:06;0.60;99.90
11035;DHT22;5571;48.110;-1.706;2024-01-16T06:27:32;0.60;99.90
11035;DHT22;5571;48.110;-1.706;2024-01-16T06:29:58;0.60;99.90
11035;DHT22;5571;48.110;-1.706;2024-01-16T06:32:24;0.50;99.90
11035;DHT22;5571;48.110;-1.706;2024-01-16T06:34:49;0.50;99.90
11035;DHT22;5571;48.110;-1.706;2024-01-16T06:37:15;0.60;99.90
11035;DHT22;5571;48.110;-1.706;2024-01-16T06:39:41;0.60;99.90
11035;DHT22;5571;48.110;-1.706;2024-01-16T06:42:07;0.60;99.90
11035;DHT22;5571;48.110;-1.706;2024-01-16T06:44:32;0.60;99.90
11035;DHT22;5571;48.110;-1.706;2024-01-16T06:46:58;0.60;99.90
11035;DHT22;5571;48.110;-1.706;2024-01-16T06:49:23;0.60;99.90
11035;DHT22;5571;48.110;-1.706;2024-01-16T06:51:49;0.60;99.90
11035;DHT22;5571;48.110;-1.706;2024-01-16T06:54:15;0.60;99.90
11035;DHT22;5571;48.110;-1.706;2024-01-16T06:56:40;0.60;99.90
11035;DHT22;5571;48.110;-1.706;2024-01-16T06:59:06;0.70;99.90
11035;DHT22;5571;48.110;-1.706;2024-01-16T07:01:32;0.70;99.90
11035;DHT22;5571;48.110;-1.706;2024-01-16T07:03:57;0.70;99.90
11035;DHT22;5571;48.110;-1.706;2024-01-16T07:06:23;0.70;99.90
11035;DHT22;5571;48.110;-1.706;2024-01-16T07:08:48;0.60;99.90
11035;DHT22;5571;48.110;-1.706;2024-01-16T07:11:14;0.60;99.90
11035;DHT22;5571;48.110;-1.706;2024-01-16T07:13:40;0.70;99.90
11035;DHT22;5571;48.110;-1.706;2024-01-16T07:16:10;0.70;99.90
11035;DHT22;5571;48.110;-1.706;2024-01-16T07:18:39;0.70;99.90
11035;DHT22;5571;48.110;-1.706;2024-01-16T07:21:16;0.70;99.90
11035;DHT22;5571;48.110;-1.706;2024-01-16T07:23:42;0.70;99.90
11035;DHT22;5571;48.110;-1.706;2024-01-16T07:26:07;0.70;99.90
11035;DHT22;5571;48.110;-1.706;2024-01-16T07:28:33;0.70;99.90
11035;DHT22;5571;48.110;-1.706;2024-01-16T07:30:58;0.70;99.90
11035;DHT22;5571;48.110;-1.706;2024-01-16T07:33:24;0.70;99.90
11035;DHT22;5571;48.110;-1.706;2024-01-16T07:35:49;0.70;99.90
11035;DHT22;5571;48.110;-1.706;2024-01-16T07:38:15;0.80;99.90
11035;DHT22;5571;48.110;-1.706;2024-01-16T07:40:41;0.80;99.90
11035;DHT22;5571;48.110;-1.706;2024-01-16T07:43:06;0.80;99.90
11035;DHT22;5571;48.110;-1.706;2024-01-16T07:45:32;0.80;99.90
11035;DHT22;5571;48.110;-1.706;2024-01-16T07:47:58;0.80;99.90
11035;DHT22;5571;48.110;-1.706;2024-01-16T07:50:23;0.80;99.90
11035;DHT22;5571;48.110;-1.706;2024-01-16T07:52:49;0.80;99.90
11035;DHT22;5571;48.110;-1.706;2024-01-16T07:55:15;0.90;99.90
11035;DHT22;5571;48.110;-1.706;2024-01-16T07:57:40;0.90;99.90
11035;DHT22;5571;48.110;-1.706;2024-01-16T08:00:06;0.90;99.90
11035;DHT22;5571;48.110;-1.706;2024-01-16T08:02:37;0.90;99.90
11035;DHT22;5571;48.110;-1.706;2024-01-16T08:05:03;0.90;99.90
11035;DHT22;5571;48.110;-1.706;2024-01-16T08:07:29;1.00;99.90
11035;DHT22;5571;48.110;-1.706;2024-01-16T08:09:54;1.00;99.90
11035;DHT22;5571;48.110;-1.706;2024-01-16T08:12:20;1.00;99.90
11035;DHT22;5571;48.110;-1.706;2024-01-16T08:14:46;1.10;99.90
11035;DHT22;5571;48.110;-1.706;2024-01-16T08:17:11;1.10;99.90
11035;DHT22;5571;48.110;-1.706;2024-01-16T08:19:37;1.10;99.90
11035;DHT22;5571;48.110;-1.706;2024-01-16T08:22:03;1.20;99.90
11035;DHT22;5571;48.110;-1.706;2024-01-16T08:24:31;1.20;99.90
11035;DHT22;5571;48.110;-1.706;2024-01-16T08:26:57;1.20;99.90
11035;DHT22;5571;48.110;-1.706;2024-01-16T08:29:23;1.30;99.90
11035;DHT22;5571;48.110;-1.706;2024-01-16T08:31:49;1.30;99.90
11035;DHT22;5571;48.110;-1.706;2024-01-16T08:34:16;1.30;99.90
11035;DHT22;5571;48.110;-1.706;2024-01-16T08:36:42;1.40;99.90
11035;DHT22;5571;48.110;-1.706;2024-01-16T08:39:07;1.40;99.90
11035;DHT22;5571;48.110;-1.706;2024-01-16T08:41:33;1.40;99.90
11035;DHT22;5571;48.110;-1.706;2024-01-16T08:43:59;1.40;99.90
11035;DHT22;5571;48.110;-1.706;2024-01-16T08:46:24;1.50;99.90
11035;DHT22;5571;48.110;-1.706;2024-01-16T08:48:50;1.50;99.90
11035;DHT22;5571;48.110;-1.706;2024-01-16T08:51:15;1.60;99.90
11035;DHT22;5571;48.110;-1.706;2024-01-16T08:53:41;1.60;99.90
11035;DHT22;5571;48.110;-1.706;2024-01-16T08:56:07;1.70;99.90
11035;DHT22;5571;48.110;-1.706;2024-01-16T08:58:34;1.70;99.90
11035;DHT22;5571;48.110;-1.706;2024-01-16T09:01:04;1.70;99.90
11035;DHT22;5571;48.110;-1.706;2024-01-16T09:03:33;1.80;99.90
11035;DHT22;5571;48.110;-1.706;2024-01-16T09:05:59;1.90;99.90
11035;DHT22;5571;48.110;-1.706;2024-01-16T09:08:26;1.90;99.90
11035;DHT22;5571;48.110;-1.706;2024-01-16T09:10:55;2.00;99.90
11035;DHT22;5571;48.110;-1.706;2024-01-16T09:13:21;2.00;99.90
11035;DHT22;5571;48.110;-1.706;2024-01-16T09:15:48;2.00;99.90
11035;DHT22;5571;48.110;-1.706;2024-01-16T09:18:15;2.00;99.90
11035;DHT22;5571;48.110;-1.706;2024-01-16T09:20:42;2.10;99.90
11035;DHT22;5571;48.110;-1.706;2024-01-16T09:23:08;2.20;99.90
11035;DHT22;5571;48.110;-1.706;2024-01-16T09:25:34;2.20;99.90
11035;DHT22;5571;48.110;-1.706;2024-01-16T09:28:00;2.20;99.90
11035;DHT22;5571;48.110;-1.706;2024-01-16T09:30:26;2.30;99.90
11035;DHT22;5571;48.110;-1.706;2024-01-16T09:32:52;2.30;99.90
11035;DHT22;5571;48.110;-1.706;2024-01-16T09:35:17;2.30;99.90
11035;DHT22;5571;48.110;-1.706;2024-01-16T09:37:43;2.30;99.90
11035;DHT22;5571;48.110;-1.706;2024-01-16T09:40:09;2.40;99.90
11035;DHT22;5571;48.110;-1.706;2024-01-16T09:42:35;2.50;99.90
11035;DHT22;5571;48.110;-1.706;2024-01-16T09:45:02;2.70;99.90
11035;DHT22;5571;48.110;-1.706;2024-01-16T09:47:31;2.80;99.90
11035;DHT22;5571;48.110;-1.706;2024-01-16T09:49:59;3.00;99.90
11035;DHT22;5571;48.110;-1.706;2024-01-16T09:52:25;3.10;99.90
11035;DHT22;5571;48.110;-1.706;2024-01-16T09:54:51;3.30;99.90
11035;DHT22;5571;48.110;-1.706;2024-01-16T09:57:19;3.50;99.90
11035;DHT22;5571;48.110;-1.706;2024-01-16T09:59:48;3.60;99.90
11035;DHT22;5571;48.110;-1.706;2024-01-16T10:02:14;3.70;99.90
11035;DHT22;5571;48.110;-1.706;2024-01-16T10:04:43;3.90;99.90
11035;DHT22;5571;48.110;-1.706;2024-01-16T10:07:10;3.90;99.90
11035;DHT22;5571;48.110;-1.706;2024-01-16T10:09:38;3.80;99.90
11035;DHT22;5571;48.110;-1.706;2024-01-16T10:12:04;4.00;99.90
11035;DHT22;5571;48.110;-1.706;2024-01-16T10:14:30;4.10;99.90
11035;DHT22;5571;48.110;-1.706;2024-01-16T10:17:04;4.20;99.90
11035;DHT22;5571;48.110;-1.706;2024-01-16T10:19:53;4.40;99.90
11035;DHT22;5571;48.110;-1.706;2024-01-16T10:22:24;4.50;99.90
11035;DHT22;5571;48.110;-1.706;2024-01-16T10:25:04;4.60;99.90
11035;DHT22;5571;48.110;-1.706;2024-01-16T10:27:30;4.90;99.90
11035;DHT22;5571;48.110;-1.706;2024-01-16T10:29:57;5.10;99.90
11035;DHT22;5571;48.110;-1.706;2024-01-16T10:32:30;5.10;99.90
11035;DHT22;5571;48.110;-1.706;2024-01-16T10:35:12;5.10;99.90
11035;DHT22;5571;48.110;-1.706;2024-01-16T10:37:46;5.30;99.90
11035;DHT22;5571;48.110;-1.706;2024-01-16T10:40:22;5.50;99.90
11035;DHT22;5571;48.110;-1.706;2024-01-16T10:43:03;5.70;99.90
11035;DHT22;5571;48.110;-1.706;2024-01-16T10:45:28;5.80;99.90
11035;DHT22;5571;48.110;-1.706;2024-01-16T10:48:05;5.90;99.90
11035;DHT22;5571;48.110;-1.706;2024-01-16T10:50:32;6.00;99.90
11035;DHT22;5571;48.110;-1.706;2024-01-16T10:53:04;6.10;99.90
11035;DHT22;5571;48.110;-1.706;2024-01-16T10:55:30;6.30;99.90
11035;DHT22;5571;48.110;-1.706;2024-01-16T10:57:57;6.50;99.90
11035;DHT22;5571;48.110;-1.706;2024-01-16T11:00:23;6.50;99.90
11035;DHT22;5571;48.110;-1.706;2024-01-16T11:05:27;6.60;99.90
11035;DHT22;5571;48.110;-1.706;2024-01-16T11:07:55;6.60;99.90
11035;DHT22;5571;48.110;-1.706;2024-01-16T11:10:24;6.30;99.90
11035;DHT22;5571;48.110;-1.706;2024-01-16T11:12:51;6.20;99.90
11035;DHT22;5571;48.110;-1.706;2024-01-16T11:15:18;6.00;99.90
11035;DHT22;5571;48.110;-1.706;2024-01-16T11:17:44;5.90;99.90
11035;DHT22;5571;48.110;-1.706;2024-01-16T11:20:11;5.80;99.90
11035;DHT22;5571;48.110;-1.706;2024-01-16T11:22:41;5.90;99.90
11035;DHT22;5571;48.110;-1.706;2024-01-16T11:25:11;6.20;99.90
11035;DHT22;5571;48.110;-1.706;2024-01-16T11:27:38;6.60;99.90
11035;DHT22;5571;48.110;-1.706;2024-01-16T11:30:08;6.80;99.90
11035;DHT22;5571;48.110;-1.706;2024-01-16T11:32:36;7.00;99.90
11035;DHT22;5571;48.110;-1.706;2024-01-16T11:35:03;7.10;99.90
11035;DHT22;5571;48.110;-1.706;2024-01-16T11:37:33;7.10;99.90
11035;DHT22;5571;48.110;-1.706;2024-01-16T11:42:47;7.50;99.90
11035;DHT22;5571;48.110;-1.706;2024-01-16T11:48:13;7.60;99.90
11035;DHT22;5571;48.110;-1.706;2024-01-16T11:50:40;7.50;99.90
11035;DHT22;5571;48.110;-1.706;2024-01-16T11:53:06;7.40;99.90
11035;DHT22;5571;48.110;-1.706;2024-01-16T11:55:33;7.50;99.90
11035;DHT22;5571;48.110;-1.706;2024-01-16T12:00:28;8.00;99.90
11035;DHT22;5571;48.110;-1.706;2024-01-16T12:03:02;8.20;99.90
11035;DHT22;5571;48.110;-1.706;2024-01-16T12:05:29;8.40;99.90
11035;DHT22;5571;48.110;-1.706;2024-01-16T12:07:54;8.50;99.90
11035;DHT22;5571;48.110;-1.706;2024-01-16T12:10:22;8.60;99.90
11035;DHT22;5571;48.110;-1.706;2024-01-16T12:12:49;8.70;99.90
11035;DHT22;5571;48.110;-1.706;2024-01-16T12:15:20;8.40;99.90
11035;DHT22;5571;48.110;-1.706;2024-01-16T12:18:00;8.50;99.90
11035;DHT22;5571;48.110;-1.706;2024-01-16T12:20:29;8.40;99.90
11035;DHT22;5571;48.110;-1.706;2024-01-16T12:22:59;8.40;99.90
11035;DHT22;5571;48.110;-1.706;2024-01-16T12:25:29;8.40;99.90
11035;DHT22;5571;48.110;-1.706;2024-01-16T12:27:56;8.20;99.90
11035;DHT22;5571;48.110;-1.706;2024-01-16T12:30:30;8.20;99.90
11035;DHT22;5571;48.110;-1.706;2024-01-16T12:33:12;7.90;99.90
11035;DHT22;5571;48.110;-1.706;2024-01-16T12:35:44;7.60;99.90
11035;DHT22;5571;48.110;-1.706;2024-01-16T12:38:11;7.30;99.90
11035;DHT22;5571;48.110;-1.706;2024-01-16T12:40:40;7.10;99.90
11035;DHT22;5571;48.110;-1.706;2024-01-16T12:43:06;6.80;99.90
11035;DHT22;5571;48.110;-1.706;2024-01-16T12:45:32;6.50;99.90
11035;DHT22;5571;48.110;-1.706;2024-01-16T12:48:00;6.20;99.90
11035;DHT22;5571;48.110;-1.706;2024-01-16T12:50:27;6.00;99.90
11035;DHT22;5571;48.110;-1.706;2024-01-16T12:53:09;6.00;99.90
11035;DHT22;5571;48.110;-1.706;2024-01-16T12:55:37;6.00;99.90
11035;DHT22;5571;48.110;-1.706;2024-01-16T12:58:17;6.00;99.90
11035;DHT22;5571;48.110;-1.706;2024-01-16T13:00:47;5.80;99.90
11035;DHT22;5571;48.110;-1.706;2024-01-16T13:03:18;5.60;99.90
11035;DHT22;5571;48.110;-1.706;2024-01-16T13:05:44;5.50;99.90
11035;DHT22;5571;48.110;-1.706;2024-01-16T13:08:18;5.50;99.90
11035;DHT22;5571;48.110;-1.706;2024-01-16T13:10:46;5.30;99.90
11035;DHT22;5571;48.110;-1.706;2024-01-16T13:13:16;5.30;99.90
11035;DHT22;5571;48.110;-1.706;2024-01-16T13:15:43;5.20;99.90
11035;DHT22;5571;48.110;-1.706;2024-01-16T13:18:26;5.20;99.90
11035;DHT22;5571;48.110;-1.706;2024-01-16T13:20:53;5.10;99.90
11035;DHT22;5571;48.110;-1.706;2024-01-16T13:23:19;5.10;99.90
11035;DHT22;5571;48.110;-1.706;2024-01-16T13:25:47;5.10;99.90
11035;DHT22;5571;48.110;-1.706;2024-01-16T13:28:14;5.00;99.90
11035;DHT22;5571;48.110;-1.706;2024-01-16T13:30:41;5.00;99.90
11035;DHT22;5571;48.110;-1.706;2024-01-16T13:33:07;5.00;99.90
11035;DHT22;5571;48.110;-1.706;2024-01-16T13:35:39;5.00;99.90
11035;DHT22;5571;48.110;-1.706;2024-01-16T13:38:06;5.00;99.90
11035;DHT22;5571;48.110;-1.706;2024-01-16T13:40:32;5.00;99.90
11035;DHT22;5571;48.110;-1.706;2024-01-16T13:42:59;5.00;99.90
11035;DHT22;5571;48.110;-1.706;2024-01-16T13:45:26;5.00;99.90
11035;DHT22;5571;48.110;-1.706;2024-01-16T13:47:51;5.00;99.90
11035;DHT22;5571;48.110;-1.706;2024-01-16T13:50:17;4.90;99.90
11035;DHT22;5571;48.110;-1.706;2024-01-16T13:52:43;4.80;99.90
11035;DHT22;5571;48.110;-1.706;2024-01-16T13:55:09;4.80;99.90
11035;DHT22;5571;48.110;-1.706;2024-01-16T13:57:35;4.80;99.90
11035;DHT22;5571;48.110;-1.706;2024-01-16T14:00:06;4.80;99.90
11035;DHT22;5571;48.110;-1.706;2024-01-16T14:02:32;4.70;99.90
11035;DHT22;5571;48.110;-1.706;2024-01-16T14:05:00;4.70;99.90
11035;DHT22;5571;48.110;-1.706;2024-01-16T14:07:26;4.60;99.90
11035;DHT22;5571;48.110;-1.706;2024-01-16T14:09:51;4.60;99.90
11035;DHT22;5571;48.110;-1.706;2024-01-16T14:12:17;4.50;99.90
11035;DHT22;5571;48.110;-1.706;2024-01-16T14:14:44;4.50;99.90
11035;DHT22;5571;48.110;-1.706;2024-01-16T14:17:10;4.40;99.90
11035;DHT22;5571;48.110;-1.706;2024-01-16T14:19:36;4.40;99.90
11035;DHT22;5571;48.110;-1.706;2024-01-16T14:22:03;4.40;99.90
11035;DHT22;5571;48.110;-1.706;2024-01-16T14:24:29;4.40;99.90
11035;DHT22;5571;48.110;-1.706;2024-01-16T14:26:55;4.30;99.90
11035;DHT22;5571;48.110;-1.706;2024-01-16T14:29:24;4.30;99.90
11035;DHT22;5571;48.110;-1.706;2024-01-16T14:31:49;4.20;99.90
11035;DHT22;5571;48.110;-1.706;2024-01-16T14:34:15;4.20;99.90
11035;DHT22;5571;48.110;-1.706;2024-01-16T14:36:41;4.20;99.90
11035;DHT22;5571;48.110;-1.706;2024-01-16T14:39:07;4.20;99.90
11035;DHT22;5571;48.110;-1.706;2024-01-16T14:41:39;4.20;99.90
11035;DHT22;5571;48.110;-1.706;2024-01-16T14:44:05;4.20;99.90
11035;DHT22;5571;48.110;-1.706;2024-01-16T14:46:31;4.10;99.90
11035;DHT22;5571;48.110;-1.706;2024-01-16T14:48:58;4.10;99.90
11035;DHT22;5571;48.110;-1.706;2024-01-16T14:51:24;4.10;99.90
11035;DHT22;5571;48.110;-1.706;2024-01-16T14:53:50;4.10;99.90
11035;DHT22;5571;48.110;-1.706;2024-01-16T14:56:16;4.00;99.90
11035;DHT22;5571;48.110;-1.706;2024-01-16T14:58:42;4.10;99.90
11035;DHT22;5571;48.110;-1.706;2024-01-16T15:01:09;4.00;99.90
11035;DHT22;5571;48.110;-1.706;2024-01-16T15:03:36;4.00;99.90
11035;DHT22;5571;48.110;-1.706;2024-01-16T15:06:02;4.10;99.90
11035;DHT22;5571;48.110;-1.706;2024-01-16T15:08:28;4.10;99.90
11035;DHT22;5571;48.110;-1.706;2024-01-16T15:10:56;4.10;99.90
11035;DHT22;5571;48.110;-1.706;2024-01-16T15:13:25;4.00;99.90
11035;DHT22;5571;48.110;-1.706;2024-01-16T15:15:51;4.00;99.90
11035;DHT22;5571;48.110;-1.706;2024-01-16T15:18:19;3.90;99.90
11035;DHT22;5571;48.110;-1.706;2024-01-16T15:20:44;3.90;99.90
11035;DHT22;5571;48.110;-1.706;2024-01-16T15:23:12;3.90;99.90
11035;DHT22;5571;48.110;-1.706;2024-01-16T15:25:38;3.90;99.90
11035;DHT22;5571;48.110;-1.706;2024-01-16T15:28:04;3.90;99.90
11035;DHT22;5571;48.110;-1.706;2024-01-16T15:30:29;3.90;99.90
11035;DHT22;5571;48.110;-1.706;2024-01-16T15:32:58;3.90;99.90
11035;DHT22;5571;48.110;-1.706;2024-01-16T15:35:24;3.80;99.90
11035;DHT22;5571;48.110;-1.706;2024-01-16T15:37:50;3.80;99.90
11035;DHT22;5571;48.110;-1.706;2024-01-16T15:40:15;3.90;99.90
11035;DHT22;5571;48.110;-1.706;2024-01-16T15:42:41;3.80;99.90
11035;DHT22;5571;48.110;-1.706;2024-01-16T15:45:08;3.80;99.90
11035;DHT22;5571;48.110;-1.706;2024-01-16T15:47:35;3.80;99.90
11035;DHT22;5571;48.110;-1.706;2024-01-16T15:50:01;3.90;99.90
11035;DHT22;5571;48.110;-1.706;2024-01-16T15:52:28;3.70;99.90